KSAD/SAD METAR and TAF weather

Enter ICAO airport designator
Station Type Date Time Source
KSAD METAR 2019/10/23 06:51 UTC NOAA

KSAD 230651Z AUTO 15005KT 10SM CLR 12/M09 A3004 RMK AO2 SLP136 T01221089 402830067


Station Type Date Time Source
KSAD Decoded METAR 2019/10/23 06:51 UTC NOAA

SAFFORD MUNICIPAL AIRPORT, AZ, United States (KSAD) 32-51N 109-38W 962M
Oct 23, 2019 - 02:51 AM EDT / 2019.10.23 0651 UTC
Wind: from the SSE (150 degrees) at 6 MPH (5 KT):0
Visibility: 10 mile(s):0
Sky conditions: clear
Temperature: 54.0 F (12.2 C)
Dew Point: 16.0 F (-8.9 C)
Relative Humidity: 21%
Pressure (altimeter): 30.04 in. Hg (1017 hPa)
ob: KSAD 230651Z AUTO 15005KT 10SM CLR 12/M09 A3004 RMK AO2 SLP136 T01221089 402830067
cycle: 7

Station Type Date Time Source
KSAD TAF UTC NOAA

Error!

Example: see airport list